Aérodrome :
LOGIN :

S'inscrire | Disclaimer

   EN    FR    IT 

 










Légende :    VFR   VFR Marginal   IFR   IFR Intensif   IFR Très Intensif
Visi : 
Plafond : 
>= 8 km
>= 3000ft
5 à 8 km
1000 à 3000 ft
1500m à 5 km
500 à 1000 ft
800 à 1500m
200 à 500 ft
< 800m
< 200 ft
Symboles :   Orages  Brouillard  Fortes neiges  Fortes précipitations  Vent > 20 kt
SIGMETs :   Divers  Orages  Givrage  Turbulence  Onde Orograph.  Cendres Volcan.







- Altitude de l'aérodrome : 598 ft
- Code IATA : BQH
- Voir les cartes d'approche


EGKB - Biggin Hill

DERNIER METAR :
  • 261720Z 01009KT 340V040 9999 VCSH FEW030 06/04 Q1018

METARs EXPIRÉS :
  • 261650Z 36013KT 9999 -SHRA SCT015CB 04/03 Q1018
  • 261620Z 35010KT 320V020 9999 VCSH FEW027CB 07/02 Q1018
  • 261550Z 34013KT 320V020 9999 VCSH FEW027CB 07/03 Q1018
  • 261520Z 36010KT 330V030 9999 VCSH FEW020CB 07/04 Q1017
  • 261450Z 02006KT 350V060 9999 VCSH FEW020CB 05/03 Q1018

TAF TAF EGKB
Valide du 26 à 18h jusqu'au 26 à 20h UTC


261706Z 2618/2620 35010KT 9999 SCT020
TEMPO 2618/2620 7000 SHRA
PROB30
TEMPO 2618/2619 34015G25KT 4000 +SHRA SHGS BKN009
Pas de NOTAMs connus pour ce terrain.



MET'MAP, la Météo Aéronautique d'un coup d'oeil ! - Copyright ORBIFLY Décembre 2007 - Disclaimer

ORBIFLY MET'MAP TEAM :

Programmation & Développement : Alexandra Zaïnal
Conception & Développement : Baudouin d'Aumeries
Co-Programmation & Développement : Marc-Olivier Méhu
Soutien technique & logistique : Manuel Goepfert

Contact : metmap@orbifly.com




SOURCES & CREDITS :

   NOAA